createdAt,value
2019-01-09T00:04:25.331Z,2.86
2019-01-09T00:06:53.725Z,2.86
2019-01-09T00:09:22.115Z,2.88
2019-01-09T00:14:25.023Z,2.89
2019-01-09T00:16:53.434Z,2.88
2019-01-09T00:19:21.839Z,2.86
2019-01-09T00:22:09.546Z,2.85
2019-01-09T00:24:57.130Z,2.81
2019-01-09T00:27:44.862Z,2.74
2019-01-09T00:30:53.171Z,2.66
2019-01-09T00:33:40.991Z,2.58
2019-01-09T00:36:09.378Z,2.48
2019-01-09T00:39:17.721Z,2.39
2019-01-09T00:41:46.108Z,2.33
2019-01-09T00:44:14.502Z,2.30
2019-01-09T00:46:42.918Z,2.31
2019-01-09T00:51:58.782Z,2.34
2019-01-09T00:54:27.169Z,2.40
2019-01-09T00:57:35.593Z,2.39
2019-01-09T01:00:43.902Z,2.39
2019-01-09T01:03:52.311Z,2.37
2019-01-09T01:06:59.293Z,2.39
2019-01-09T01:10:07.721Z,2.43
2019-01-09T01:13:16.031Z,2.45
2019-01-09T01:16:23.130Z,2.46
2019-01-09T01:19:31.446Z,2.45
2019-01-09T01:22:39.814Z,2.46
2019-01-09T01:25:48.135Z,2.48
2019-01-09T01:28:56.563Z,2.51
2019-01-09T01:32:04.881Z,2.52
2019-01-09T01:35:11.925Z,2.54
2019-01-09T01:38:20.248Z,2.56
2019-01-09T01:41:28.679Z,2.59
2019-01-09T01:44:36.992Z,2.61
2019-01-09T01:47:44.004Z,2.64
2019-01-09T01:50:51.004Z,2.66
2019-01-09T01:53:59.507Z,2.67
2019-01-09T01:57:06.578Z,2.70
2019-01-09T02:00:14.907Z,2.70
2019-01-09T02:03:23.219Z,2.71
2019-01-09T02:06:31.656Z,2.71
2019-01-09T02:09:38.640Z,2.68
2019-01-09T02:12:46.978Z,2.68
2019-01-09T02:15:55.347Z,2.65
2019-01-09T02:19:03.686Z,2.62
2019-01-09T02:22:11.034Z,2.61
2019-01-09T02:25:19.488Z,2.61
2019-01-09T02:28:27.802Z,2.61
2019-01-09T02:31:36.290Z,2.62
2019-01-09T02:34:04.695Z,2.61
2019-01-09T02:36:33.083Z,2.60
2019-01-09T02:41:35.946Z,2.56
2019-01-09T02:46:38.140Z,2.53
2019-01-09T02:49:06.673Z,2.52
2019-01-09T02:51:35.058Z,2.52
2019-01-09T02:54:03.450Z,2.52
2019-01-09T02:59:06.207Z,2.55
2019-01-09T03:01:34.620Z,2.55
2019-01-09T03:04:03.041Z,2.57
2019-01-09T03:06:31.439Z,2.58
2019-01-09T03:09:11.852Z,2.54
2019-01-09T03:11:30.094Z,2.52
2019-01-09T03:13:58.484Z,2.47
2019-01-09T03:16:26.891Z,2.43
2019-01-09T03:18:55.285Z,2.38
2019-01-09T03:21:23.675Z,2.36
2019-01-09T03:26:26.504Z,2.30
2019-01-09T03:31:48.544Z,2.28
2019-01-09T03:34:17.032Z,2.28
2019-01-09T03:36:45.631Z,2.30
2019-01-09T03:39:14.022Z,2.31
2019-01-09T03:42:01.662Z,2.30
2019-01-09T03:44:30.040Z,2.32
2019-01-09T03:46:58.499Z,2.30
2019-01-09T03:49:27.015Z,2.26
2019-01-09T03:51:55.404Z,2.25
2019-01-09T03:54:23.797Z,2.23
2019-01-09T03:56:52.204Z,2.21
2019-01-09T03:59:20.667Z,2.13
2019-01-09T04:01:49.054Z,2.07
2019-01-09T04:04:17.557Z,2.04
2019-01-09T04:06:45.936Z,2.02
2019-01-09T04:09:14.330Z,1.96
2019-01-09T04:11:42.853Z,1.91
2019-01-09T04:14:11.245Z,1.88
2019-01-09T04:16:39.771Z,1.89
2019-01-09T04:19:08.182Z,1.88
2019-01-09T04:21:36.580Z,1.85
2019-01-09T04:24:04.974Z,1.86
2019-01-09T04:29:07.214Z,1.84
2019-01-09T04:31:35.611Z,1.80
2019-01-09T04:34:04.016Z,1.75
2019-01-09T04:36:32.408Z,1.70
2019-01-09T04:39:00.847Z,1.68
2019-01-09T04:44:02.760Z,1.68
2019-01-09T04:46:31.153Z,1.68
2019-01-09T04:48:59.633Z,1.73
2019-01-09T04:51:27.966Z,1.79
2019-01-09T04:53:56.367Z,1.83
2019-01-09T04:56:24.781Z,1.82
2019-01-09T04:58:53.182Z,1.76
2019-01-09T05:01:21.577Z,1.74
2019-01-09T05:06:23.736Z,1.74
2019-01-09T05:08:52.178Z,1.73
2019-01-09T05:11:20.650Z,1.69
2019-01-09T05:13:49.054Z,1.62
2019-01-09T05:16:17.440Z,1.58
2019-01-09T05:18:48.448Z,1.54
2019-01-09T05:21:16.838Z,1.53
2019-01-09T05:23:45.232Z,1.51
2019-01-09T05:26:13.672Z,1.51
2019-01-09T05:28:42.082Z,1.51
2019-01-09T05:31:12.187Z,1.55
2019-01-09T05:33:40.615Z,1.56
2019-01-09T05:36:09.005Z,1.60
2019-01-09T05:38:37.416Z,1.63
2019-01-09T05:41:05.863Z,1.63
2019-01-09T05:43:34.262Z,1.60
2019-01-09T05:46:02.642Z,1.58
2019-01-09T05:48:42.999Z,1.53
2019-01-09T05:51:11.386Z,1.55
2019-01-09T05:53:39.780Z,1.55
2019-01-09T05:56:08.236Z,1.58
2019-01-09T05:58:36.640Z,1.60
2019-01-09T06:01:05.096Z,1.63
2019-01-09T06:03:33.512Z,1.60
2019-01-09T06:06:01.898Z,1.62
2019-01-09T06:08:30.295Z,1.65
2019-01-09T06:10:58.715Z,1.64
2019-01-09T06:13:27.104Z,1.62
2019-01-09T06:15:55.508Z,1.60
2019-01-09T06:18:23.919Z,1.59
2019-01-09T06:20:52.310Z,1.60
2019-01-09T06:23:20.704Z,1.57
2019-01-09T06:25:49.120Z,1.56
2019-01-09T06:28:17.502Z,1.57
2019-01-09T06:30:45.898Z,1.60
2019-01-09T06:35:48.211Z,1.61
2019-01-09T06:38:16.623Z,1.63
2019-01-09T06:40:45.021Z,1.63
2019-01-09T06:43:13.404Z,1.63
2019-01-09T06:48:15.386Z,1.65
2019-01-09T06:50:43.774Z,1.67
2019-01-09T06:53:12.203Z,1.69
2019-01-09T06:55:40.592Z,1.71
2019-01-09T06:58:08.982Z,1.74
2019-01-09T07:03:11.723Z,1.76
2019-01-09T07:05:40.234Z,1.77
2019-01-09T07:08:08.628Z,1.79
2019-01-09T07:10:37.026Z,1.81
2019-01-09T07:13:05.448Z,1.83
2019-01-09T07:15:33.850Z,1.82
2019-01-09T07:18:02.306Z,1.79
2019-01-09T07:23:05.091Z,1.77
2019-01-09T07:25:33.613Z,1.81
2019-01-09T07:28:02.022Z,1.82
2019-01-09T07:30:30.418Z,1.82
2019-01-09T07:32:58.833Z,1.83
2019-01-09T07:35:27.223Z,1.84
2019-01-09T07:37:55.622Z,1.84
2019-01-09T07:42:57.491Z,1.86
2019-01-09T07:45:25.884Z,1.90
2019-01-09T07:50:27.779Z,1.93
2019-01-09T07:52:56.183Z,1.96
2019-01-09T07:55:24.612Z,1.96
2019-01-09T07:57:53.039Z,1.90
2019-01-09T08:00:21.427Z,1.86
2019-01-09T08:03:29.865Z,1.78
2019-01-09T08:05:58.323Z,1.72
2019-01-09T08:08:26.728Z,1.67
2019-01-09T08:10:55.131Z,1.64
2019-01-09T08:13:23.525Z,1.63
2019-01-09T08:15:51.925Z,1.65
2019-01-09T08:18:20.352Z,1.71
2019-01-09T08:20:48.741Z,1.76
2019-01-09T08:23:17.139Z,1.77
2019-01-09T08:25:45.634Z,1.81
2019-01-09T08:28:14.031Z,1.82
2019-01-09T08:30:42.419Z,1.83
2019-01-09T08:33:10.916Z,1.89
2019-01-09T08:35:39.307Z,1.91
2019-01-09T08:38:07.707Z,1.93
2019-01-09T08:43:09.843Z,1.90
2019-01-09T08:45:38.242Z,1.84
2019-01-09T08:48:06.677Z,1.80
2019-01-09T08:50:35.071Z,1.75
2019-01-09T08:53:03.467Z,1.75
2019-01-09T08:55:31.934Z,1.73
2019-01-09T08:58:00.314Z,1.68
2019-01-09T09:00:48.227Z,1.60
2019-01-09T09:03:16.625Z,1.55
2019-01-09T09:05:45.019Z,1.51
2019-01-09T09:11:07.869Z,1.46
2019-01-09T09:14:16.187Z,1.41
2019-01-09T09:16:44.599Z,1.37
2019-01-09T09:19:13.005Z,1.37
2019-01-09T09:21:41.414Z,1.31
2019-01-09T09:24:09.819Z,1.29
2019-01-09T09:26:38.223Z,1.25
2019-01-09T09:29:06.627Z,1.26
2019-01-09T09:36:48.605Z,1.39
2019-01-09T09:39:17.001Z,1.45
2019-01-09T09:41:45.401Z,1.50
2019-01-09T09:44:13.848Z,1.61
2019-01-09T09:46:42.275Z,1.70
2019-01-09T09:49:10.669Z,1.71
2019-01-09T09:54:13.323Z,1.66
2019-01-09T09:59:15.646Z,1.65
2019-01-09T10:04:17.686Z,1.63
2019-01-09T10:06:46.086Z,1.66
2019-01-09T10:09:14.515Z,1.64
2019-01-09T10:11:42.907Z,1.63
2019-01-09T10:14:11.309Z,1.68
2019-01-09T10:16:39.793Z,1.69
2019-01-09T10:19:08.361Z,1.70
2019-01-09T10:21:36.757Z,1.67
2019-01-09T10:26:39.831Z,1.63
2019-01-09T10:31:42.135Z,1.55
2019-01-09T10:36:44.725Z,1.57
2019-01-09T10:41:46.775Z,1.66
2019-01-09T10:44:18.865Z,1.66
2019-01-09T10:46:45.527Z,1.70
2019-01-09T10:49:13.925Z,1.75
2019-01-09T10:51:42.323Z,1.73
2019-01-09T10:54:10.754Z,1.73
2019-01-09T10:56:39.149Z,1.76
2019-01-09T10:59:26.765Z,1.84
2019-01-09T11:01:55.161Z,1.87
2019-01-09T11:04:23.555Z,2.00
2019-01-09T11:06:51.987Z,2.10
2019-01-09T11:09:20.381Z,2.06
2019-01-09T11:12:08.040Z,1.97
2019-01-09T11:14:36.424Z,1.93
2019-01-09T11:17:04.813Z,1.85
2019-01-09T11:22:07.222Z,1.94
2019-01-09T11:24:35.777Z,1.92
2019-01-09T11:27:04.231Z,1.87
2019-01-09T11:29:32.625Z,1.85
2019-01-09T11:32:01.049Z,1.89
2019-01-09T11:34:29.445Z,1.84
2019-01-09T11:36:57.835Z,1.82
2019-01-09T11:39:26.257Z,1.85
2019-01-09T11:41:54.654Z,1.89
2019-01-09T11:44:23.037Z,1.91
2019-01-09T11:46:51.464Z,1.88
2019-01-09T11:49:19.859Z,1.83
2019-01-09T11:51:48.259Z,1.83
2019-01-09T11:54:16.709Z,1.86
2019-01-09T11:56:45.103Z,1.84
2019-01-09T11:59:13.497Z,1.83
2019-01-09T12:04:15.511Z,1.83
2019-01-09T12:06:43.907Z,1.83
2019-01-09T12:09:12.329Z,1.84
2019-01-09T12:11:40.721Z,1.77
2019-01-09T12:14:09.127Z,1.67
2019-01-09T12:22:06.031Z,1.54
2019-01-09T12:27:27.527Z,1.53
2019-01-09T12:29:56.039Z,1.58
2019-01-09T12:32:24.432Z,1.59
2019-01-09T12:34:52.821Z,1.60
2019-01-09T12:39:55.231Z,1.68
2019-01-09T12:42:25.139Z,1.64
2019-01-09T12:44:53.528Z,1.60
2019-01-09T12:47:33.714Z,1.54
2019-01-09T12:52:26.036Z,1.57
2019-01-09T12:54:54.610Z,1.55
2019-01-09T12:57:23.066Z,1.54
2019-01-09T12:59:51.467Z,1.48
2019-01-09T13:02:19.925Z,1.46
2019-01-09T13:04:48.315Z,1.44
2019-01-09T13:07:16.935Z,1.38
2019-01-09T13:09:45.389Z,1.35
2019-01-09T13:12:13.795Z,1.39
2019-01-09T13:14:42.192Z,1.39
2019-01-09T13:17:12.074Z,1.40
2019-01-09T13:19:40.734Z,1.39
2019-01-09T13:22:09.134Z,1.40
2019-01-09T13:24:37.616Z,1.40
2019-01-09T13:27:06.013Z,1.40
2019-01-09T13:29:34.403Z,1.40
2019-01-09T13:32:02.834Z,1.41
2019-01-09T13:34:31.228Z,1.42
2019-01-09T13:36:59.621Z,1.45
2019-01-09T13:39:30.821Z,1.45
2019-01-09T13:41:58.158Z,1.45
2019-01-09T13:44:26.546Z,1.45
2019-01-09T13:46:55.008Z,1.42
2019-01-09T13:49:23.417Z,1.45
2019-01-09T13:51:51.788Z,1.50
2019-01-09T13:54:20.287Z,1.52
2019-01-09T13:56:48.682Z,1.53
2019-01-09T13:59:17.148Z,1.55
2019-01-09T14:01:57.440Z,1.54
2019-01-09T14:04:15.678Z,1.57
2019-01-09T14:06:44.072Z,1.57
2019-01-09T14:09:12.558Z,1.56
2019-01-09T14:11:48.094Z,1.53
2019-01-09T14:14:16.488Z,1.47
2019-01-09T14:16:45.431Z,1.43
2019-01-09T14:19:16.616Z,1.41
2019-01-09T14:21:45.248Z,1.41
2019-01-09T14:24:13.706Z,1.38
2019-01-09T14:26:42.166Z,1.38
2019-01-09T14:29:10.560Z,1.33
2019-01-09T14:31:39.018Z,1.33
2019-01-09T14:34:07.409Z,1.31
2019-01-09T14:36:35.805Z,1.28
2019-01-09T14:39:48.155Z,1.23
2019-01-09T14:42:14.345Z,1.24
2019-01-09T14:44:42.745Z,1.24
2019-01-09T14:47:11.238Z,1.17
2019-01-09T14:49:39.636Z,1.14
2019-01-09T14:52:08.026Z,1.16
2019-01-09T14:54:36.435Z,1.16
2019-01-09T14:57:04.958Z,1.13
2019-01-09T14:59:33.353Z,1.13
2019-01-09T15:02:01.828Z,1.10
2019-01-09T15:04:30.228Z,1.08
2019-01-09T15:06:58.696Z,1.05
2019-01-09T15:09:27.222Z,1.03
2019-01-09T15:11:55.612Z,1.01
2019-01-09T15:14:24.001Z,1.02
2019-01-09T15:16:52.467Z,1.01
2019-01-09T15:19:20.856Z,0.92
2019-01-09T15:21:49.281Z,0.94
2019-01-09T15:24:17.787Z,0.91
2019-01-09T15:26:46.172Z,0.89
2019-01-09T15:29:14.646Z,0.88
2019-01-09T15:31:43.282Z,0.83
2019-01-09T15:34:11.680Z,0.79
2019-01-09T15:36:40.140Z,0.81
2019-01-09T15:39:48.568Z,0.77
2019-01-09T15:42:16.961Z,0.78
2019-01-09T15:44:45.349Z,0.77
2019-01-09T15:47:13.799Z,0.78
2019-01-09T15:49:42.191Z,0.80
2019-01-09T15:52:10.590Z,0.82
2019-01-09T15:54:39.007Z,0.80
2019-01-09T15:57:07.404Z,0.76
2019-01-09T16:02:24.883Z,0.75
2019-01-09T16:04:53.288Z,0.75
2019-01-09T16:07:21.685Z,0.75
2019-01-09T16:09:50.178Z,0.75
2019-01-09T16:12:18.575Z,0.74
2019-01-09T16:14:46.977Z,0.73
2019-01-09T16:17:15.431Z,0.75
2019-01-09T16:19:43.823Z,0.75
2019-01-09T16:22:12.291Z,0.73
2019-01-09T16:24:40.777Z,0.72
2019-01-09T16:27:09.173Z,0.69
2019-01-09T16:29:37.570Z,0.67
2019-01-09T16:32:05.985Z,0.66
2019-01-09T16:34:34.375Z,0.66
2019-01-09T16:37:02.908Z,0.67
2019-01-09T16:39:31.409Z,0.68
2019-01-09T16:41:59.746Z,0.71
2019-01-09T16:44:28.140Z,0.65
2019-01-09T16:46:56.553Z,0.63
2019-01-09T16:49:28.080Z,0.61
2019-01-09T16:51:55.077Z,0.57
2019-01-09T16:54:23.530Z,0.55
2019-01-09T16:56:51.940Z,0.57
2019-01-09T16:59:20.341Z,0.63
2019-01-09T17:01:48.801Z,0.59
2019-01-09T17:04:17.196Z,0.58
2019-01-09T17:06:47.325Z,0.58
2019-01-09T17:09:35.193Z,0.61
2019-01-09T17:12:03.583Z,0.63
2019-01-09T17:14:31.980Z,0.59
2019-01-09T17:17:00.405Z,0.59
2019-01-09T17:19:28.801Z,0.57
2019-01-09T17:21:57.233Z,0.55
2019-01-09T17:24:44.981Z,0.52
2019-01-09T17:27:13.386Z,0.50
2019-01-09T17:29:41.787Z,0.51
2019-01-09T17:32:10.200Z,0.52
2019-01-09T17:34:38.595Z,0.52
2019-01-09T17:37:06.988Z,0.50
2019-01-09T17:39:54.814Z,0.47
2019-01-09T17:42:23.205Z,0.44
2019-01-09T17:44:51.597Z,0.47
2019-01-09T17:49:55.310Z,0.49
2019-01-09T17:54:58.309Z,0.48
2019-01-09T18:00:02.481Z,0.52
2019-01-09T18:02:30.870Z,0.50
2019-01-09T18:07:33.015Z,0.43
2019-01-09T18:12:34.959Z,0.43
2019-01-09T18:20:31.777Z,0.45
2019-01-09T18:23:00.170Z,0.50
2019-01-09T18:26:10.233Z,0.51
2019-01-09T18:28:38.625Z,0.52
2019-01-09T18:31:48.756Z,0.50
2019-01-09T18:34:17.219Z,0.49
2019-01-09T18:37:24.409Z,0.48
2019-01-09T18:40:31.409Z,0.46
2019-01-09T18:43:39.897Z,0.43
2019-01-09T18:46:48.218Z,0.39
2019-01-09T18:49:55.237Z,0.37
2019-01-09T18:53:03.977Z,0.35
2019-01-09T19:00:42.131Z,0.40
2019-01-09T19:05:44.368Z,0.37
2019-01-09T19:10:48.662Z,0.36
2019-01-09T19:13:17.056Z,0.33
2019-01-09T19:15:45.513Z,0.34
2019-01-09T19:18:13.915Z,0.33
2019-01-09T19:21:01.594Z,0.32
2019-01-09T19:23:30.056Z,0.33
2019-01-09T19:25:58.445Z,0.30
2019-01-09T19:28:28.651Z,0.31
2019-01-09T19:31:16.303Z,0.30
2019-01-09T19:39:13.582Z,0.32
2019-01-09T19:44:16.031Z,0.33
2019-01-09T19:49:18.541Z,0.38
2019-01-09T19:51:47.075Z,0.39
2019-01-09T19:54:15.467Z,0.38
2019-01-09T19:59:38.621Z,0.36
2019-01-09T20:02:46.935Z,0.36
2019-01-09T20:05:55.603Z,0.37
2019-01-09T20:08:24.024Z,0.37
2019-01-09T20:10:52.440Z,0.33
2019-01-09T20:15:54.712Z,0.34
2019-01-09T20:19:03.107Z,0.35
2019-01-09T20:21:50.703Z,0.34
2019-01-09T20:24:59.113Z,0.33
2019-01-09T20:27:27.511Z,0.32
2019-01-09T20:30:15.210Z,0.30
2019-01-09T20:33:02.900Z,0.27
2019-01-09T20:35:31.354Z,0.25
2019-01-09T20:38:19.103Z,0.26
2019-01-09T20:40:47.515Z,0.27
2019-01-09T20:43:15.948Z,0.21
2019-01-09T20:45:44.309Z,0.17
2019-01-09T20:48:12.747Z,0.16
2019-01-09T20:50:41.219Z,0.15
2019-01-09T20:56:02.926Z,0.16
2019-01-09T21:01:45.029Z,0.16
2019-01-09T21:04:32.641Z,0.16
2019-01-09T21:09:50.122Z,0.15
2019-01-09T21:12:30.475Z,0.16
2019-01-09T21:17:33.501Z,0.15
2019-01-09T21:20:01.884Z,0.14
2019-01-09T21:22:49.468Z,0.12
2019-01-09T21:25:57.846Z,0.14
2019-01-09T21:28:26.259Z,0.17
2019-01-09T21:30:54.663Z,0.10
2019-01-09T21:35:57.276Z,0.10
2019-01-09T21:38:25.674Z,0.11
2019-01-09T21:41:13.424Z,0.05
2019-01-09T21:44:01.133Z,0.06
2019-01-09T21:46:29.545Z,0.05
2019-01-09T21:48:57.942Z,0.07
2019-01-09T21:51:26.340Z,0.08
2019-01-09T21:56:28.641Z,0.08
2019-01-09T21:58:57.026Z,0.07
2019-01-09T22:01:25.513Z,0.06
2019-01-09T22:03:53.904Z,0.03
2019-01-09T22:06:41.522Z,0.05
2019-01-09T22:09:09.986Z,0.10
2019-01-09T22:11:38.380Z,0.12
2019-01-09T22:14:26.118Z,0.13
2019-01-09T22:16:54.522Z,0.15
2019-01-09T22:19:22.921Z,0.16
2019-01-09T22:21:51.339Z,0.16
2019-01-09T22:24:19.721Z,0.15
2019-01-09T22:27:07.542Z,0.15
2019-01-09T22:29:35.931Z,0.13
2019-01-09T22:32:23.635Z,0.10
2019-01-09T22:34:52.036Z,0.08
2019-01-09T22:37:20.437Z,0.11
2019-01-09T22:39:48.904Z,0.11
2019-01-09T22:42:17.309Z,0.11
2019-01-09T22:44:45.698Z,0.11
2019-01-09T22:47:14.106Z,0.09
2019-01-09T22:49:42.494Z,0.09
2019-01-09T22:52:30.583Z,0.08
2019-01-09T22:54:58.975Z,0.06
2019-01-09T22:57:27.362Z,0.08
2019-01-09T22:59:55.765Z,0.09
2019-01-09T23:03:04.081Z,0.09
2019-01-09T23:08:07.783Z,0.09
2019-01-09T23:19:12.928Z,0.04
2019-01-09T23:21:41.346Z,0.02
2019-01-09T23:24:28.979Z,-0.02
2019-01-09T23:29:31.406Z,-0.11
2019-01-09T23:32:19.250Z,-0.09
2019-01-09T23:34:47.648Z,-0.10
2019-01-09T23:37:35.427Z,-0.09
2019-01-09T23:40:43.745Z,-0.09
2019-01-09T23:46:06.630Z,-0.05
2019-01-09T23:48:35.029Z,-0.05
2019-01-09T23:51:22.620Z,-0.02
2019-01-09T23:53:51.022Z,0.01
2019-01-09T23:59:13.043Z,-0.06
